Terminal Aerodrome Forecast
Issued by NWS

Home | Current Version | Previous Version | Text Only | Print | Product List | Glossary On
Versions: 1 2 3 4 5 6 7 8 9 10 11 12 13 14 15 16 17 18 19 20 21 22 23 24 25
000
FTUS43 KBIS 180900 AAA
TAFMOT
TAF AMD
KMOT 180924Z 1809/1906 14004KT P6SM -SN SCT015 BKN080
     FM181000 14006KT P6SM -SN OVC015
     FM181300 13005KT P6SM OVC015
     FM190200 17005KT P6SM OVC012=

USA.gov is the U.S. government's official web portal to all federal, state and local government web resources and services.